createdAt,value
2023-05-09T00:01:31.796Z,47.43
2023-05-09T00:03:59.846Z,47.44
2023-05-09T00:06:28.040Z,47.80
2023-05-09T00:08:55.987Z,47.53
2023-05-09T00:11:23.117Z,47.65
2023-05-09T00:13:50.956Z,48.05
2023-05-09T00:16:18.791Z,48.06
2023-05-09T00:18:47.561Z,48.14
2023-05-09T00:21:14.830Z,48.16
2023-05-09T00:23:41.813Z,48.15
2023-05-09T00:26:10.401Z,48.17
2023-05-09T00:28:39.144Z,48.54
2023-05-09T00:31:06.108Z,48.28
2023-05-09T00:33:33.170Z,48.75
2023-05-09T00:36:00.528Z,48.82
2023-05-09T00:38:27.533Z,48.86
2023-05-09T00:40:54.622Z,49.20
2023-05-09T00:43:22.283Z,48.82
2023-05-09T00:45:50.194Z,48.83
2023-05-09T00:48:17.985Z,49.15
2023-05-09T00:50:45.177Z,49.14
2023-05-09T00:53:12.266Z,49.45
2023-05-09T00:55:40.880Z,49.22
2023-05-09T00:58:07.983Z,49.27
2023-05-09T01:00:35.072Z,49.42
2023-05-09T01:03:02.544Z,49.59
2023-05-09T01:05:40.924Z,49.78
2023-05-09T01:08:22.175Z,49.84
2023-05-09T01:10:59.574Z,49.96
2023-05-09T01:13:57.218Z,50.05
2023-05-09T01:16:43.990Z,50.04
2023-05-09T01:19:28.962Z,49.95
2023-05-09T01:21:57.543Z,50.14
2023-05-09T01:24:46.635Z,50.55
2023-05-09T01:27:33.202Z,50.19
2023-05-09T01:30:04.042Z,50.44
2023-05-09T01:32:35.706Z,50.21
2023-05-09T01:35:05.379Z,50.02
2023-05-09T01:37:35.021Z,50.01
2023-05-09T01:40:10.603Z,49.48
2023-05-09T01:42:54.752Z,49.42
2023-05-09T01:45:24.047Z,49.60
2023-05-09T01:47:51.672Z,49.47
2023-05-09T01:50:20.175Z,49.52
2023-05-09T01:52:52.481Z,49.41
2023-05-09T01:55:21.784Z,49.00
2023-05-09T01:57:50.482Z,49.03
2023-05-09T02:03:24.369Z,49.18
2023-05-09T02:05:52.414Z,48.89
2023-05-09T02:08:23.156Z,48.54
2023-05-09T02:10:50.395Z,48.39
2023-05-09T02:13:17.572Z,48.13
2023-05-09T02:15:46.137Z,47.93
2023-05-09T02:18:14.047Z,48.32
2023-05-09T02:20:41.281Z,48.01
2023-05-09T02:23:08.850Z,47.65
2023-05-09T02:25:36.590Z,47.82
2023-05-09T02:28:04.263Z,47.84
2023-05-09T02:30:37.101Z,47.51
2023-05-09T02:33:07.745Z,47.42
2023-05-09T02:35:37.588Z,47.66
2023-05-09T02:38:07.101Z,47.59
2023-05-09T02:40:35.763Z,47.71
2023-05-09T02:43:03.118Z,47.58
2023-05-09T02:45:30.378Z,47.82
2023-05-09T02:47:57.670Z,47.56
2023-05-09T02:50:25.292Z,47.55
2023-05-09T02:52:52.731Z,47.45
2023-05-09T02:55:19.875Z,47.50
2023-05-09T02:57:51.975Z,47.56
2023-05-09T03:01:19.403Z,47.82
2023-05-09T03:03:46.859Z,47.71
2023-05-09T03:06:15.276Z,47.68
2023-05-09T03:08:42.372Z,47.31
2023-05-09T03:11:10.496Z,47.48
2023-05-09T03:13:37.658Z,47.49
2023-05-09T03:16:05.425Z,47.17
2023-05-09T03:18:32.542Z,47.19
2023-05-09T03:21:00.642Z,47.75
2023-05-09T03:23:29.290Z,47.44
2023-05-09T03:25:56.453Z,47.28
2023-05-09T03:28:23.800Z,47.38
2023-05-09T03:30:51.028Z,47.30
2023-05-09T03:33:21.475Z,47.41
2023-05-09T03:35:49.434Z,47.52
2023-05-09T03:38:16.524Z,47.30
2023-05-09T03:40:43.559Z,47.38
2023-05-09T03:43:11.849Z,47.61
2023-05-09T03:45:39.075Z,47.39
2023-05-09T03:48:11.502Z,47.12
2023-05-09T03:50:44.656Z,47.56
2023-05-09T03:53:13.237Z,47.43
2023-05-09T03:55:41.751Z,47.78
2023-05-09T03:58:10.102Z,47.61
2023-05-09T04:00:40.831Z,47.28
2023-05-09T04:03:13.873Z,47.99
2023-05-09T04:05:45.929Z,47.76
2023-05-09T04:08:21.934Z,47.90
2023-05-09T04:10:53.420Z,47.71
2023-05-09T04:13:20.622Z,47.77
2023-05-09T04:15:47.746Z,47.57
2023-05-09T04:18:14.769Z,47.48
2023-05-09T04:20:41.919Z,47.65
2023-05-09T04:23:09.642Z,47.81
2023-05-09T04:25:37.504Z,47.79
2023-05-09T04:28:04.682Z,47.61
2023-05-09T04:30:31.660Z,47.55
2023-05-09T04:32:59.408Z,47.69
2023-05-09T04:35:28.391Z,47.21
2023-05-09T04:37:55.781Z,47.60
2023-05-09T04:40:25.443Z,47.69
2023-05-09T04:42:57.694Z,47.32
2023-05-09T04:45:27.926Z,47.16
2023-05-09T04:47:55.935Z,47.58
2023-05-09T04:50:23.238Z,47.54
2023-05-09T04:52:50.314Z,47.43
2023-05-09T04:55:17.976Z,47.38
2023-05-09T04:57:53.422Z,48.06
2023-05-09T05:00:20.775Z,47.81
2023-05-09T05:02:49.247Z,47.44
2023-05-09T05:05:16.780Z,47.69
2023-05-09T05:07:44.275Z,48.12
2023-05-09T05:10:15.505Z,47.56
2023-05-09T05:12:46.958Z,47.83
2023-05-09T05:15:15.296Z,48.03
2023-05-09T05:17:45.344Z,47.92
2023-05-09T05:20:13.040Z,48.01
2023-05-09T05:22:45.084Z,48.02
2023-05-09T05:25:13.578Z,47.89
2023-05-09T05:27:42.438Z,48.33
2023-05-09T05:30:12.433Z,47.77
2023-05-09T05:32:39.528Z,47.60
2023-05-09T05:35:06.988Z,47.91
2023-05-09T05:37:37.747Z,47.73
2023-05-09T05:40:06.275Z,48.09
2023-05-09T05:42:35.007Z,48.58
2023-05-09T05:45:04.628Z,48.41
2023-05-09T05:47:35.046Z,48.36
2023-05-09T05:50:04.568Z,47.87
2023-05-09T05:52:31.908Z,47.47
2023-05-09T05:55:00.950Z,47.08
2023-05-09T05:57:28.080Z,47.02
2023-05-09T05:59:55.252Z,47.18
2023-05-09T06:02:22.750Z,47.68
2023-05-09T06:04:53.329Z,47.24
2023-05-09T06:07:21.705Z,47.56
2023-05-09T06:09:48.766Z,47.46
2023-05-09T06:12:17.237Z,47.25
2023-05-09T06:14:44.292Z,47.54
2023-05-09T06:17:11.851Z,46.75
2023-05-09T06:19:39.560Z,46.86
2023-05-09T06:22:06.919Z,46.71
2023-05-09T06:24:36.335Z,46.49
2023-05-09T06:27:04.916Z,46.65
2023-05-09T06:29:32.145Z,46.29
2023-05-09T06:32:02.727Z,46.70
2023-05-09T06:34:30.038Z,46.36
2023-05-09T06:36:57.297Z,46.32
2023-05-09T06:39:24.753Z,46.31
2023-05-09T06:41:51.953Z,46.30
2023-05-09T06:44:25.543Z,46.45
2023-05-09T06:46:52.969Z,46.51
2023-05-09T06:49:20.031Z,46.17
2023-05-09T06:51:47.033Z,45.84
2023-05-09T06:54:14.127Z,45.68
2023-05-09T06:56:41.540Z,45.77
2023-05-09T06:59:08.621Z,45.61
2023-05-09T07:01:35.888Z,44.99
2023-05-09T07:04:03.029Z,44.35
2023-05-09T07:06:30.518Z,44.42
2023-05-09T07:08:57.666Z,44.80
2023-05-09T07:11:24.873Z,44.75
2023-05-09T07:13:51.837Z,44.85
2023-05-09T07:16:19.198Z,45.03
2023-05-09T07:18:46.146Z,44.72
2023-05-09T07:21:13.914Z,44.78
2023-05-09T07:23:41.168Z,44.67
2023-05-09T07:26:08.282Z,44.32
2023-05-09T07:28:35.683Z,44.10
2023-05-09T07:31:03.540Z,43.96
2023-05-09T07:33:30.723Z,43.61
2023-05-09T07:36:08.496Z,42.67
2023-05-09T07:38:35.518Z,42.39
2023-05-09T07:41:02.610Z,41.77
2023-05-09T07:43:35.092Z,42.07
2023-05-09T07:46:02.225Z,42.84
2023-05-09T07:48:29.336Z,41.74
2023-05-09T07:50:56.370Z,41.70
2023-05-09T07:53:23.336Z,41.33
2023-05-09T07:55:50.470Z,41.59
2023-05-09T07:58:17.889Z,41.46
2023-05-09T08:00:45.109Z,40.13
2023-05-09T08:03:12.400Z,39.91
2023-05-09T08:05:39.902Z,38.89
2023-05-09T08:08:07.970Z,39.24
2023-05-09T08:10:35.240Z,38.96
2023-05-09T08:13:02.323Z,39.07
2023-05-09T08:15:29.580Z,38.82
2023-05-09T08:17:56.630Z,38.56
2023-05-09T08:20:24.540Z,38.59
2023-05-09T08:22:51.610Z,37.74
2023-05-09T08:25:18.722Z,37.58
2023-05-09T08:27:45.751Z,37.22
2023-05-09T08:30:13.446Z,37.42
2023-05-09T08:32:40.753Z,36.59
2023-05-09T08:35:09.175Z,35.31
2023-05-09T08:37:36.994Z,35.29
2023-05-09T08:40:07.984Z,35.75
2023-05-09T08:42:37.767Z,35.69
2023-05-09T08:45:10.619Z,35.96
2023-05-09T08:47:38.973Z,36.67
2023-05-09T08:50:06.821Z,37.15
2023-05-09T08:52:34.257Z,37.65
2023-05-09T08:55:07.661Z,38.26
2023-05-09T08:57:37.456Z,38.60
2023-05-09T09:00:11.439Z,39.81
2023-05-09T09:02:42.033Z,39.36
2023-05-09T09:05:19.692Z,39.85
2023-05-09T09:07:57.943Z,41.10
2023-05-09T09:10:29.857Z,40.56
2023-05-09T09:12:58.408Z,40.52
2023-05-09T09:15:30.135Z,39.70
2023-05-09T09:18:00.378Z,39.75
2023-05-09T09:20:34.601Z,39.07
2023-05-09T09:23:04.986Z,39.87
2023-05-09T09:25:32.065Z,40.34
2023-05-09T09:28:01.334Z,41.91
2023-05-09T09:30:29.451Z,42.52
2023-05-09T09:32:59.285Z,43.56
2023-05-09T09:35:26.805Z,43.55
2023-05-09T09:38:01.761Z,44.21
2023-05-09T09:40:28.870Z,45.21
2023-05-09T09:42:56.210Z,46.70
2023-05-09T09:45:23.292Z,47.19
2023-05-09T09:47:50.500Z,47.32
2023-05-09T09:50:19.709Z,47.35
2023-05-09T09:52:56.036Z,48.14
2023-05-09T09:55:24.972Z,46.61
2023-05-09T09:57:53.510Z,46.86
2023-05-09T10:00:26.339Z,46.20
2023-05-09T10:02:54.827Z,45.73
2023-05-09T10:05:29.931Z,45.82
2023-05-09T10:08:04.739Z,45.66
2023-05-09T10:10:34.127Z,45.45
2023-05-09T10:13:12.578Z,44.81
2023-05-09T10:15:53.132Z,44.32
2023-05-09T10:18:27.366Z,44.76
2023-05-09T10:20:56.622Z,45.88
2023-05-09T10:23:25.553Z,45.39
2023-05-09T10:26:21.468Z,46.72
2023-05-09T10:28:53.466Z,47.56
2023-05-09T10:31:29.930Z,47.85
2023-05-09T10:34:01.653Z,47.59
2023-05-09T10:36:28.781Z,48.66
2023-05-09T10:38:56.502Z,47.41
2023-05-09T10:41:24.276Z,48.49
2023-05-09T10:43:52.201Z,48.69
2023-05-09T10:46:20.088Z,49.38
2023-05-09T10:48:49.013Z,48.62
2023-05-09T10:51:17.280Z,48.07
2023-05-09T10:53:45.789Z,48.14
2023-05-09T10:56:32.638Z,47.04
2023-05-09T10:59:01.170Z,47.10
2023-05-09T11:01:39.536Z,47.35
2023-05-09T11:04:16.814Z,48.60
2023-05-09T11:06:54.563Z,47.89
2023-05-09T11:09:29.798Z,47.07
2023-05-09T11:12:06.184Z,46.15
2023-05-09T11:14:40.162Z,45.49
2023-05-09T11:17:27.640Z,45.23
2023-05-09T11:20:28.312Z,46.58
2023-05-09T11:23:00.193Z,46.16
2023-05-09T11:25:30.115Z,47.71
2023-05-09T11:28:03.440Z,48.52
2023-05-09T11:30:42.043Z,47.30
2023-05-09T11:33:30.430Z,46.15
2023-05-09T11:36:20.210Z,43.34
2023-05-09T11:38:48.181Z,43.30
2023-05-09T11:41:15.940Z,44.04
2023-05-09T11:43:44.916Z,44.87
2023-05-09T11:46:13.039Z,43.24
2023-05-09T11:48:42.371Z,44.26
2023-05-09T11:51:18.585Z,44.46
2023-05-09T11:53:54.562Z,44.13
2023-05-09T11:56:23.273Z,44.27
2023-05-09T11:58:52.090Z,43.56
2023-05-09T12:01:19.984Z,43.18
2023-05-09T12:03:48.016Z,43.16
2023-05-09T12:06:20.055Z,43.20
2023-05-09T12:08:47.588Z,44.06
2023-05-09T12:11:15.758Z,44.04
2023-05-09T12:13:50.778Z,43.90
2023-05-09T12:16:19.938Z,44.42
2023-05-09T12:18:49.042Z,46.61
2023-05-09T12:21:17.618Z,48.52
2023-05-09T12:23:47.834Z,45.91
2023-05-09T12:26:16.458Z,43.48
2023-05-09T12:28:44.161Z,45.71
2023-05-09T12:31:11.949Z,44.76
2023-05-09T12:33:39.751Z,47.59
2023-05-09T12:36:10.574Z,47.27
2023-05-09T12:38:38.703Z,45.37
2023-05-09T12:41:18.140Z,42.91
2023-05-09T12:43:53.765Z,41.70
2023-05-09T12:46:22.314Z,42.50
2023-05-09T12:48:50.241Z,47.09
2023-05-09T12:51:22.151Z,43.74
2023-05-09T12:53:50.012Z,40.30
2023-05-09T12:56:19.148Z,41.60
2023-05-09T12:58:56.072Z,41.75
2023-05-09T13:01:28.265Z,42.79
2023-05-09T13:04:06.581Z,43.84
2023-05-09T13:06:36.253Z,44.78
2023-05-09T13:09:06.555Z,44.15
2023-05-09T13:11:33.907Z,44.41
2023-05-09T13:14:04.414Z,42.67
2023-05-09T13:16:31.801Z,40.54
2023-05-09T13:19:05.655Z,40.90
2023-05-09T13:21:38.641Z,41.84
2023-05-09T13:24:17.451Z,41.35
2023-05-09T13:26:57.294Z,41.94
2023-05-09T13:29:38.931Z,39.83
2023-05-09T13:32:20.339Z,40.94
2023-05-09T13:34:49.965Z,44.32
2023-05-09T13:37:20.804Z,42.52
2023-05-09T13:39:49.253Z,41.82
2023-05-09T13:42:18.423Z,42.51
2023-05-09T13:44:54.707Z,39.78
2023-05-09T13:47:32.949Z,39.83
2023-05-09T13:50:13.225Z,40.43
2023-05-09T13:52:53.506Z,41.11
2023-05-09T13:55:23.293Z,41.95
2023-05-09T13:57:50.522Z,42.28
2023-05-09T14:00:18.467Z,42.52
2023-05-09T14:02:50.129Z,40.96
2023-05-09T14:05:20.459Z,40.26
2023-05-09T14:07:47.757Z,39.46
2023-05-09T14:10:25.159Z,37.51
2023-05-09T14:12:59.411Z,39.07
2023-05-09T14:15:41.177Z,38.02
2023-05-09T14:18:21.822Z,38.10
2023-05-09T14:20:57.098Z,37.07
2023-05-09T14:23:34.773Z,39.87
2023-05-09T14:26:05.921Z,42.58
2023-05-09T14:28:45.400Z,42.38
2023-05-09T14:31:25.120Z,42.26
2023-05-09T14:34:06.383Z,41.44
2023-05-09T14:36:38.539Z,41.62
2023-05-09T14:39:14.293Z,42.54
2023-05-09T14:41:51.036Z,41.22
2023-05-09T14:44:30.918Z,41.08
2023-05-09T14:47:03.945Z,41.70
2023-05-09T14:49:38.033Z,42.86
2023-05-09T14:52:13.432Z,43.33
2023-05-09T14:55:00.417Z,43.03
2023-05-09T14:57:40.545Z,44.14
2023-05-09T15:00:22.025Z,45.36
2023-05-09T15:02:57.118Z,44.98
2023-05-09T15:05:37.528Z,46.76
2023-05-09T15:08:17.030Z,46.39
2023-05-09T15:10:51.040Z,46.68
2023-05-09T15:13:22.076Z,47.48
2023-05-09T15:16:02.164Z,46.94
2023-05-09T15:18:45.150Z,44.96
2023-05-09T15:21:29.682Z,46.01
2023-05-09T15:24:09.851Z,46.92
2023-05-09T15:26:39.977Z,46.15
2023-05-09T15:29:27.309Z,46.24
2023-05-09T15:32:13.118Z,45.04
2023-05-09T15:34:48.665Z,44.23
2023-05-09T15:37:25.346Z,44.85
2023-05-09T15:39:59.847Z,47.00
2023-05-09T15:42:38.916Z,47.70
2023-05-09T15:45:16.135Z,48.67
2023-05-09T15:47:48.425Z,49.34
2023-05-09T15:50:26.128Z,49.22
2023-05-09T15:53:01.894Z,49.41
2023-05-09T15:55:47.397Z,49.91
2023-05-09T15:58:19.812Z,48.83
2023-05-09T16:00:59.239Z,49.30
2023-05-09T16:03:27.006Z,48.78
2023-05-09T16:05:56.886Z,49.08
2023-05-09T16:08:24.505Z,49.70
2023-05-09T16:10:55.053Z,49.56
2023-05-09T16:13:23.217Z,49.92
2023-05-09T16:15:53.595Z,50.87
2023-05-09T16:18:24.086Z,52.32
2023-05-09T16:21:10.063Z,54.71
2023-05-09T16:23:37.446Z,52.99
2023-05-09T16:26:09.755Z,52.21
2023-05-09T16:28:40.375Z,52.08
2023-05-09T16:31:13.777Z,52.48
2023-05-09T16:33:44.419Z,52.28
2023-05-09T16:36:14.965Z,52.29
2023-05-09T16:38:42.403Z,51.82
2023-05-09T16:41:13.217Z,52.05
2023-05-09T16:43:41.946Z,52.64
2023-05-09T16:46:09.715Z,52.72
2023-05-09T16:48:38.589Z,54.49
2023-05-09T16:51:08.482Z,55.77
2023-05-09T16:53:42.939Z,56.42
2023-05-09T16:56:15.878Z,55.69
2023-05-09T16:58:45.958Z,55.23
2023-05-09T17:01:22.183Z,57.12
2023-05-09T17:03:51.878Z,57.48
2023-05-09T17:06:19.748Z,56.61
2023-05-09T17:08:46.911Z,56.78
2023-05-09T17:11:14.192Z,57.10
2023-05-09T17:13:44.486Z,56.82
2023-05-09T17:16:17.540Z,57.94
2023-05-09T17:18:48.085Z,59.10
2023-05-09T17:21:23.875Z,60.35
2023-05-09T17:23:54.302Z,59.76
2023-05-09T17:26:23.021Z,60.76
2023-05-09T17:28:52.749Z,60.30
2023-05-09T17:31:28.447Z,61.68
2023-05-09T17:33:56.517Z,62.19
2023-05-09T17:36:24.094Z,61.05
2023-05-09T17:38:51.525Z,62.13
2023-05-09T17:41:18.774Z,61.52
2023-05-09T17:43:46.256Z,61.13
2023-05-09T17:46:16.395Z,61.67
2023-05-09T17:48:46.540Z,61.20
2023-05-09T17:51:13.804Z,61.43
2023-05-09T17:53:41.523Z,61.77
2023-05-09T17:56:16.104Z,62.07
2023-05-09T17:58:51.059Z,60.93
2023-05-09T18:01:48.318Z,61.08
2023-05-09T18:04:28.088Z,61.79
2023-05-09T18:07:05.656Z,61.46
2023-05-09T18:09:36.601Z,61.53
2023-05-09T18:12:07.303Z,61.53
2023-05-09T18:14:35.047Z,61.00
2023-05-09T18:17:07.366Z,61.80
2023-05-09T18:19:42.182Z,61.80
2023-05-09T18:22:16.083Z,61.73
2023-05-09T18:24:51.652Z,61.47
2023-05-09T18:27:40.199Z,61.88
2023-05-09T18:30:14.395Z,62.42
2023-05-09T18:32:45.020Z,62.20
2023-05-09T18:35:15.471Z,62.23
2023-05-09T18:37:44.356Z,62.30
2023-05-09T18:40:20.334Z,62.61
2023-05-09T18:45:39.974Z,59.18
2023-05-09T18:48:07.692Z,57.32
2023-05-09T18:50:34.951Z,56.21
2023-05-09T18:53:05.659Z,56.38
2023-05-09T18:55:35.261Z,55.29
2023-05-09T18:58:04.698Z,56.12
2023-05-09T19:00:32.064Z,55.38
2023-05-09T19:02:59.287Z,55.21
2023-05-09T19:05:27.617Z,54.48
2023-05-09T19:07:54.810Z,54.60
2023-05-09T19:10:24.770Z,54.04
2023-05-09T19:12:57.435Z,54.62
2023-05-09T19:15:25.015Z,54.73
2023-05-09T19:17:57.580Z,54.55
2023-05-09T19:20:33.551Z,54.91
2023-05-09T19:23:11.536Z,54.53
2023-05-09T19:26:04.373Z,54.91
2023-05-09T19:28:48.142Z,55.41
2023-05-09T19:31:16.599Z,56.01
2023-05-09T19:33:50.592Z,57.21
2023-05-09T19:36:22.888Z,57.42
2023-05-09T19:38:57.642Z,57.67
2023-05-09T19:41:27.625Z,57.41
2023-05-09T19:43:56.701Z,57.28
2023-05-09T19:46:27.690Z,57.12
2023-05-09T19:48:57.456Z,57.71
2023-05-09T19:51:24.709Z,57.17
2023-05-09T19:53:55.531Z,57.37
2023-05-09T19:56:30.275Z,57.11
2023-05-09T19:58:57.977Z,57.47
2023-05-09T20:01:26.600Z,57.35
2023-05-09T20:03:59.408Z,57.32
2023-05-09T20:06:36.313Z,57.20
2023-05-09T20:09:32.804Z,57.04
2023-05-09T20:12:03.129Z,57.41
2023-05-09T20:14:50.355Z,56.43
2023-05-09T20:17:23.028Z,56.53
2023-05-09T20:19:58.048Z,56.22
2023-05-09T20:22:30.771Z,56.37
2023-05-09T20:25:09.555Z,55.80
2023-05-09T20:27:41.439Z,55.85
2023-05-09T20:30:21.316Z,56.14
2023-05-09T20:32:48.463Z,55.42
2023-05-09T20:35:18.809Z,55.10
2023-05-09T20:37:59.495Z,54.69
2023-05-09T20:40:39.395Z,54.61
2023-05-09T20:43:15.164Z,54.60
2023-05-09T20:45:51.056Z,54.06
2023-05-09T20:48:26.749Z,54.19
2023-05-09T20:51:02.406Z,54.22
2023-05-09T20:53:40.340Z,54.28
2023-05-09T20:56:15.198Z,53.83
2023-05-09T20:58:51.773Z,54.01
2023-05-09T21:01:29.793Z,53.78
2023-05-09T21:04:07.166Z,53.72
2023-05-09T21:06:36.954Z,53.51
2023-05-09T21:09:07.899Z,53.62
2023-05-09T21:11:56.166Z,53.42
2023-05-09T21:14:28.813Z,53.41
2023-05-09T21:16:59.055Z,53.53
2023-05-09T21:19:34.482Z,53.71
2023-05-09T21:22:04.894Z,53.92
2023-05-09T21:24:39.334Z,53.75
2023-05-09T21:27:20.301Z,53.41
2023-05-09T21:29:50.229Z,53.47
2023-05-09T21:32:33.978Z,53.49
2023-05-09T21:35:04.501Z,53.23
2023-05-09T21:37:34.531Z,52.90
2023-05-09T21:40:05.790Z,52.59
2023-05-09T21:42:40.322Z,52.40
2023-05-09T21:45:11.092Z,52.24
2023-05-09T21:47:40.722Z,51.98
2023-05-09T21:50:08.311Z,51.93
2023-05-09T21:52:37.773Z,51.43
2023-05-09T21:55:13.017Z,51.67
2023-05-09T21:57:59.724Z,51.86
2023-05-09T22:00:49.307Z,51.52
2023-05-09T22:03:50.094Z,52.29
2023-05-09T22:06:51.999Z,52.33
2023-05-09T22:09:26.571Z,52.17
2023-05-09T22:11:59.421Z,52.07
2023-05-09T22:14:30.730Z,51.90
2023-05-09T22:16:58.530Z,52.00
2023-05-09T22:19:29.108Z,51.85
2023-05-09T22:22:01.144Z,51.50
2023-05-09T22:24:30.830Z,52.01
2023-05-09T22:27:03.717Z,51.09
2023-05-09T22:29:39.417Z,51.57
2023-05-09T22:32:09.327Z,51.44
2023-05-09T22:34:41.808Z,51.38
2023-05-09T22:37:09.807Z,51.25
2023-05-09T22:39:38.562Z,51.65
2023-05-09T22:42:07.148Z,51.32
2023-05-09T22:44:39.279Z,51.41
2023-05-09T22:47:10.020Z,51.76
2023-05-09T22:49:42.664Z,51.42
2023-05-09T22:52:11.494Z,51.16
2023-05-09T22:54:38.643Z,51.56
2023-05-09T22:57:08.994Z,51.35
2023-05-09T22:59:46.137Z,51.65
2023-05-09T23:02:13.398Z,51.79
2023-05-09T23:04:44.031Z,51.32
2023-05-09T23:07:19.667Z,51.06
2023-05-09T23:09:49.886Z,51.10
2023-05-09T23:12:24.405Z,52.82
2023-05-09T23:14:51.739Z,53.21
2023-05-09T23:17:18.906Z,52.89
2023-05-09T23:19:46.426Z,52.88
2023-05-09T23:22:13.537Z,52.76
2023-05-09T23:24:40.732Z,52.80
2023-05-09T23:27:10.908Z,52.74
2023-05-09T23:29:40.468Z,52.56
2023-05-09T23:32:09.810Z,52.26
2023-05-09T23:34:37.077Z,52.06
2023-05-09T23:37:07.993Z,51.99
2023-05-09T23:39:35.740Z,52.01
2023-05-09T23:42:02.902Z,52.28
2023-05-09T23:44:30.365Z,52.43
2023-05-09T23:46:57.614Z,52.28
2023-05-09T23:49:30.486Z,52.64
2023-05-09T23:51:57.868Z,52.58
2023-05-09T23:54:24.968Z,52.69
2023-05-09T23:56:52.349Z,52.53
2023-05-09T23:59:19.513Z,52.58
